Time;durP1;ratioP1;P1;durP2;ratioP2;P2;SDS_P1;SDS_P2;PMS_P1;PMS_P2;Temp;Humidity;BMP_temperature;BMP_pressure;BME280_temperature;BME280_humidity;BME280_pressure;Samples;Min_cycle;Max_cycle;Signal;HPM_P1;HPM_P2
2022/12/10 00:02:58;;;;;;;26.62;16.55;;;;;;;0.39;100.00;97602.66;4227858;81;21026;-89
2022/12/10 00:09:02;;;;;;;24.00;15.15;;;;;;;0.41;100.00;97611.18;4252855;81;20986;-89
2022/12/10 00:15:06;;;;;;;25.05;15.80;;;;;;;0.42;100.00;97616.22;4241463;82;21052;-88
2022/12/10 00:21:11;;;;;;;27.10;14.58;;;;;;;0.43;100.00;97618.33;4237580;82;21081;-88
2022/12/10 00:27:14;;;;;;;24.20;14.97;;;;;;;0.43;100.00;97613.74;4228665;82;21038;-89
2022/12/10 00:33:15;;;;;;;25.77;16.30;;;;;;;0.43;100.00;97621.81;4297230;80;21015;-89
2022/12/10 00:39:20;;;;;;;32.83;17.65;;;;;;;0.40;100.00;97626.55;4301573;80;21006;-88
2022/12/10 00:45:21;;;;;;;31.70;18.52;;;;;;;0.42;100.00;97627.55;4320324;80;21677;-89
2022/12/10 00:51:26;;;;;;;25.52;14.98;;;;;;;0.38;100.00;97630.13;4300499;80;21265;-89
2022/12/10 00:57:28;;;;;;;29.37;16.05;;;;;;;0.37;100.00;97624.53;4296466;80;21065;-88
2022/12/10 01:03:30;;;;;;;29.10;15.55;;;;;;;0.42;100.00;97639.66;4287089;80;21006;-88
2022/12/10 01:09:31;;;;;;;26.75;15.78;;;;;;;0.45;100.00;97637.63;4321682;80;21007;-87
2022/12/10 01:15:39;;;;;;;28.12;15.18;;;;;;;0.44;100.00;97642.80;4243851;82;21042;-87
2022/12/10 01:21:42;;;;;;;37.73;16.97;;;;;;;0.38;100.00;97638.20;4247485;82;21057;-87
2022/12/10 01:27:43;;;;;;;31.68;18.25;;;;;;;0.32;100.00;97642.81;4249568;82;20940;-88
2022/12/10 01:33:47;;;;;;;29.40;15.63;;;;;;;0.38;100.00;97661.64;4220229;82;20978;-87
2022/12/10 01:39:49;;;;;;;29.57;15.80;;;;;;;0.40;100.00;97672.31;4201316;83;21044;-87
2022/12/10 01:45:53;;;;;;;26.90;15.30;;;;;;;0.43;100.00;97670.83;4213126;83;21041;-88
2022/12/10 01:51:56;;;;;;;22.05;13.80;;;;;;;0.45;100.00;97664.55;4205442;83;21024;-87
2022/12/10 01:57:57;;;;;;;25.77;15.08;;;;;;;0.39;100.00;97665.37;4217490;83;21000;-88
2022/12/10 02:04:28;;;;;;;23.80;14.10;;;;;;;0.41;100.00;97668.48;4210325;83;21021;-89
2022/12/10 02:10:44;;;;;;;23.25;13.75;;;;;;;0.40;100.00;97676.89;4203290;83;21587;-88
2022/12/10 02:17:02;;;;;;;21.02;13.25;;;;;;;0.37;100.00;97668.95;4229581;82;20958;-88
2022/12/10 02:23:23;;;;;;;19.57;12.58;;;;;;;0.41;100.00;97673.86;4225985;82;21013;-87
2022/12/10 02:29:28;;;;;;;21.68;13.25;;;;;;;0.41;100.00;97673.09;4227690;82;20955;-87
2022/12/10 02:35:33;;;;;;;23.75;13.28;;;;;;;0.44;100.00;97685.88;4246603;82;21882;-87
2022/12/10 02:41:40;;;;;;;23.40;14.20;;;;;;;0.36;100.00;97690.25;4245526;82;21008;-87
2022/12/10 02:47:43;;;;;;;25.30;16.02;;;;;;;0.38;100.00;97693.94;4241677;82;21665;-86
2022/12/10 02:53:46;;;;;;;28.25;16.67;;;;;;;0.39;100.00;97700.36;4325375;80;20983;-86
2022/12/10 03:00:22;;;;;;;22.85;14.73;;;;;;;0.39;100.00;97690.94;4336836;80;21049;-86
2022/12/10 03:06:48;;;;;;;33.73;20.75;;;;;;;0.33;100.00;97700.93;4323405;80;20990;-86
2022/12/10 03:12:55;;;;;;;29.87;18.50;;;;;;;0.31;100.00;97692.41;4328192;80;21069;-86
2022/12/10 03:19:00;;;;;;;30.97;19.05;;;;;;;0.30;100.00;97702.95;4312546;80;21089;-87
2022/12/10 03:25:02;;;;;;;27.32;18.87;;;;;;;0.27;100.00;97696.33;4231717;82;20982;-87
2022/12/10 03:31:04;;;;;;;30.40;17.42;;;;;;;0.28;100.00;97707.88;4238316;82;21449;-86
2022/12/10 03:37:06;;;;;;;36.70;20.62;;;;;;;0.32;100.00;97706.07;4323189;81;21131;-85
2022/12/10 03:43:07;;;;;;;33.98;21.00;;;;;;;0.34;100.00;97707.32;4316896;81;21027;-87
2022/12/10 03:49:10;;;;;;;31.80;19.70;;;;;;;0.32;100.00;97714.14;4301678;81;21040;-86
2022/12/10 03:55:11;;;;;;;37.42;21.65;;;;;;;0.32;100.00;97714.94;4313318;81;21486;-87
2022/12/10 04:01:14;;;;;;;48.65;27.05;;;;;;;0.34;100.00;97723.47;4320839;81;21989;-86
2022/12/10 04:07:15;;;;;;;51.77;26.50;;;;;;;0.37;100.00;97728.17;4205345;82;21081;-87
2022/12/10 04:19:42;;;;;;;57.50;30.43;;;;;;;0.33;100.00;97758.22;4296114;81;21626;-88
2022/12/10 04:32:05;;;;;;;69.55;35.80;;;;;;;0.32;100.00;97780.09;4316176;80;20990;-86
2022/12/10 04:38:08;;;;;;;71.02;36.40;;;;;;;0.33;100.00;97754.19;4338637;80;21062;-86
2022/12/10 04:44:10;;;;;;;66.97;36.50;;;;;;;0.32;100.00;97748.59;4338676;80;21423;-85
2022/12/10 04:50:12;;;;;;;63.80;34.55;;;;;;;0.34;100.00;97763.84;4332473;80;21046;-85
2022/12/10 04:56:14;;;;;;;66.00;34.65;;;;;;;0.36;100.00;97772.34;4332378;80;21082;-86
2022/12/10 05:02:15;;;;;;;65.52;36.15;;;;;;;0.38;100.00;97777.39;4335794;80;21026;-86
2022/12/10 05:08:17;;;;;;;78.07;39.50;;;;;;;0.40;100.00;97777.30;4323930;80;21030;-86
2022/12/10 05:14:18;;;;;;;74.35;37.13;;;;;;;0.40;100.00;97774.61;4320934;80;21062;-87
2022/12/10 05:20:20;;;;;;;70.28;38.20;;;;;;;0.39;100.00;97791.09;4331592;80;21022;-88
2022/12/10 05:26:23;;;;;;;62.85;34.30;;;;;;;0.35;100.00;97811.72;4341544;80;20970;-86
2022/12/10 05:32:25;;;;;;;70.22;35.70;;;;;;;0.31;100.00;97827.78;4307347;80;20983;-86
2022/12/10 05:38:29;;;;;;;65.92;37.38;;;;;;;0.22;100.00;97833.05;4258120;82;21021;-86
2022/12/10 05:44:31;;;;;;;76.37;41.18;;;;;;;0.25;100.00;97841.80;4244548;82;21017;-86
2022/12/10 05:50:33;;;;;;;87.27;41.50;;;;;;;0.29;100.00;97841.33;4240120;82;21005;-87
2022/12/10 05:56:36;;;;;;;89.25;43.48;;;;;;;0.30;100.00;97828.88;4226922;82;20967;-86
2022/12/10 06:02:37;;;;;;;86.57;43.38;;;;;;;0.27;100.00;97808.02;4238964;82;21857;-85
2022/12/10 06:08:39;;;;;;;96.05;44.18;;;;;;;0.28;100.00;97808.27;4168098;83;21925;-86
2022/12/10 06:14:41;;;;;;;77.42;38.33;;;;;;;0.34;100.00;97813.65;4254146;81;20977;-86
2022/12/10 06:20:43;;;;;;;78.40;38.28;;;;;;;0.35;100.00;97804.99;4253805;82;20985;-85
2022/12/10 06:26:44;;;;;;;63.98;32.80;;;;;;;0.36;100.00;97801.96;4246693;82;21046;-86
2022/12/10 06:32:46;;;;;;;88.72;41.00;;;;;;;0.32;100.00;97833.94;4280771;80;21935;-85
2022/12/10 06:38:48;;;;;;;74.50;37.30;;;;;;;0.33;100.00;97824.17;4309805;79;20971;-86
2022/12/10 06:44:51;;;;;;;85.10;40.25;;;;;;;0.28;100.00;97854.58;4313978;80;20983;-85
2022/12/10 06:50:55;;;;;;;76.20;38.25;;;;;;;0.31;100.00;97858.73;4295887;80;21037;-85
2022/12/10 06:56:57;;;;;;;72.90;35.80;;;;;;;0.33;100.00;97872.63;4298265;80;20959;-85
2022/12/10 07:02:58;;;;;;;71.77;36.42;;;;;;;0.29;100.00;97892.48;4280659;80;20999;-86
2022/12/10 07:09:00;;;;;;;69.35;37.05;;;;;;;0.23;100.00;97919.39;4312679;80;21030;-86
2022/12/10 07:15:01;;;;;;;73.37;37.15;;;;;;;0.22;100.00;97916.48;4333191;80;21053;-86
2022/12/10 07:21:22;;;;;;;85.65;36.83;;;;;;;0.28;100.00;97911.90;4284116;80;21027;-85
2022/12/10 07:27:25;;;;;;;65.28;33.25;;;;;;;0.31;100.00;97903.70;4308103;80;20983;-85
2022/12/10 07:33:27;;;;;;;74.32;37.05;;;;;;;0.35;100.00;97907.29;4320348;80;20959;-85
2022/12/10 07:39:28;;;;;;;66.40;35.43;;;;;;;0.36;100.00;97914.27;4301997;81;20995;-85
2022/12/10 07:45:30;;;;;;;64.77;35.05;;;;;;;0.41;100.00;97919.44;4300179;80;20983;-84
2022/12/10 07:51:31;;;;;;;65.97;34.73;;;;;;;0.42;100.00;97906.19;4299894;80;21638;-84
2022/12/10 07:57:33;;;;;;;75.00;38.98;;;;;;;0.43;100.00;97887.55;4310382;80;21561;-84
2022/12/10 08:03:35;;;;;;;74.70;36.63;;;;;;;0.45;100.00;97898.23;4296332;80;21027;-83
2022/12/10 08:09:36;;;;;;;73.17;38.42;;;;;;;0.43;100.00;97904.50;4284387;80;20991;-84
2022/12/10 08:15:37;;;;;;;76.17;40.28;;;;;;;0.41;100.00;97908.09;4311734;80;21023;-85
2022/12/10 08:21:39;;;;;;;76.22;40.33;;;;;;;0.43;100.00;97924.70;4307089;80;21006;-84
2022/12/10 08:27:40;;;;;;;70.05;38.17;;;;;;;0.44;100.00;97938.95;4248867;82;21084;-84
2022/12/10 08:33:42;;;;;;;78.78;40.83;;;;;;;0.50;100.00;97938.38;4227920;82;20986;-86
2022/12/10 08:39:43;;;;;;;84.25;43.75;;;;;;;0.51;100.00;97935.14;4214128;83;21041;-84
2022/12/10 08:45:45;;;;;;;88.60;45.58;;;;;;;0.53;100.00;97940.44;4209432;83;21084;-85
2022/12/10 08:51:46;;;;;;;86.70;45.85;;;;;;;0.54;100.00;97943.34;4114478;85;21620;-85
2022/12/10 08:57:48;;;;;;;88.47;48.05;;;;;;;0.55;100.00;97936.06;4299065;81;21019;-85
2022/12/10 09:03:50;;;;;;;88.78;46.10;;;;;;;0.59;100.00;97930.22;4307492;80;21008;-85
2022/12/10 09:09:52;;;;;;;91.37;47.53;;;;;;;0.61;100.00;97927.41;4307273;80;20994;-85
2022/12/10 09:15:53;;;;;;;87.12;46.88;;;;;;;0.68;100.00;97938.42;4306440;80;22199;-85
2022/12/10 09:21:55;;;;;;;78.22;40.15;;;;;;;0.70;100.00;97936.73;4306966;81;21067;-86
2022/12/10 09:27:56;;;;;;;84.25;45.33;;;;;;;0.72;100.00;97918.34;4301420;81;21487;-86
2022/12/10 09:33:58;;;;;;;75.83;40.60;;;;;;;0.67;100.00;97920.70;4290188;80;21043;-86
2022/12/10 09:39:59;;;;;;;75.92;42.38;;;;;;;0.67;100.00;97919.35;4314501;80;20975;-86
2022/12/10 09:46:06;;;;;;;81.10;42.78;;;;;;;0.71;100.00;97908.67;4334657;80;21019;-86
2022/12/10 09:52:19;;;;;;;87.50;45.43;;;;;;;0.77;100.00;97914.84;4292112;80;20940;-86
2022/12/10 09:58:25;;;;;;;81.80;44.53;;;;;;;0.80;100.00;97919.55;4310372;80;21026;-86
2022/12/10 10:04:26;;;;;;;80.83;41.95;;;;;;;0.80;100.00;97907.44;4291715;81;21518;-85
2022/12/10 10:10:33;;;;;;;81.65;41.83;;;;;;;0.83;100.00;97902.72;4301961;80;21041;-85
2022/12/10 10:16:37;;;;;;;;;;;;;;;0.87;100.00;97909.57;4298116;80;20958;-86
2022/12/10 10:22:40;;;;;;;80.87;42.50;;;;;;;0.88;100.00;97907.88;4230833;82;20355;-86
2022/12/10 10:28:43;;;;;;;80.10;41.73;;;;;;;0.88;100.00;97901.15;4177913;83;21111;-85
2022/12/10 10:34:48;;;;;;;72.82;36.80;;;;;;;0.93;100.00;97902.83;4192858;82;21059;-85
2022/12/10 10:40:56;;;;;;;70.72;35.33;;;;;;;0.98;100.00;97896.66;4122875;84;21080;-85
2022/12/10 10:46:57;;;;;;;72.45;36.05;;;;;;;1.00;100.00;97890.93;4255468;82;21072;-85
2022/12/10 10:52:59;;;;;;;134.07;50.45;;;;;;;1.03;100.00;97886.21;4251898;82;20999;-85
2022/12/10 10:59:05;;;;;;;103.47;43.20;;;;;;;1.02;100.00;97894.84;4255112;82;21065;-86
2022/12/10 11:05:17;;;;;;;87.47;40.12;;;;;;;1.04;100.00;97904.73;4261265;82;21584;-85
2022/12/10 11:11:24;;;;;;;76.70;36.15;;;;;;;1.08;100.00;97910.23;4260185;82;21949;-86
2022/12/10 11:17:27;;;;;;;75.50;37.10;;;;;;;1.06;100.00;97901.15;4263179;82;20975;-86
2022/12/10 11:23:43;;;;;;;83.22;38.53;;;;;;;1.08;100.00;97904.84;4261923;82;21574;-86
2022/12/10 11:30:01;;;;;;;72.05;37.88;;;;;;;1.08;100.00;97902.16;4171283;83;22032;-87
2022/12/10 11:36:31;;;;;;;78.70;39.73;;;;;;;1.09;100.00;97907.75;4158778;83;21040;-86
2022/12/10 11:43:25;;;;;;;72.53;35.17;;;;;;;1.05;100.00;97898.80;4180643;83;21007;-88
2022/12/10 11:50:06;;;;;;;72.80;36.60;;;;;;;1.04;100.00;97906.63;4166490;83;21118;-87
2022/12/10 11:56:31;;;;;;;74.35;37.40;;;;;;;1.05;100.00;97902.83;4166070;83;21041;-86
2022/12/10 12:02:50;;;;;;;69.80;36.00;;;;;;;1.00;100.00;97892.28;4154575;83;21680;-87
2022/12/10 12:09:25;;;;;;;71.33;34.75;;;;;;;1.01;100.00;97896.53;4159396;83;20996;-87
2022/12/10 12:15:41;;;;;;;81.25;36.00;;;;;;;1.00;100.00;97901.71;4151775;83;21067;-87
2022/12/10 12:21:46;;;;;;;58.27;28.87;;;;;;;0.98;100.00;97896.66;4183894;83;21912;-87
2022/12/10 12:28:24;;;;;;;69.95;32.33;;;;;;;0.96;100.00;97898.90;4170081;83;21618;-87
2022/12/10 12:34:43;;;;;;;66.92;32.90;;;;;;;0.94;100.00;97890.36;4236747;80;21991;-87
2022/12/10 12:40:59;;;;;;;65.42;30.27;;;;;;;0.93;100.00;97882.06;4240889;80;20970;-88
2022/12/10 12:47:21;;;;;;;52.38;25.72;;;;;;;0.88;100.00;97874.20;4299548;80;20955;-87
2022/12/10 12:53:24;;;;;;;60.10;28.20;;;;;;;0.88;100.00;97882.29;4296037;80;20954;-88
2022/12/10 13:00:03;;;;;;;55.95;27.82;;;;;;;0.88;100.00;97890.37;4306540;80;20971;-88
2022/12/10 13:06:25;;;;;;;61.40;31.17;;;;;;;0.87;100.00;97886.12;4297646;80;21011;-88
2022/12/10 13:12:31;;;;;;;64.53;35.10;;;;;;;0.83;100.00;97890.59;4307532;80;21105;-87
2022/12/10 13:18:38;;;;;;;;;;;;;;;0.83;100.00;97892.52;4299531;80;21018;-88
2022/12/10 13:24:47;;;;;;;59.83;32.33;;;;;;;0.85;100.00;97902.38;4305418;80;20806;-87
2022/12/10 13:31:14;;;;;;;59.00;31.70;;;;;;;0.86;100.00;97914.75;4308441;80;21042;-88
2022/12/10 13:37:40;;;;;;;52.08;27.73;;;;;;;0.89;100.00;97922.91;4336543;80;20991;-88
2022/12/10 13:50:46;;;;;;;54.45;28.85;;;;;;;0.83;100.00;97926.96;4339320;79;21000;-87
2022/12/10 13:57:42;;;;;;;67.37;32.65;;;;;;;0.74;100.00;97916.87;4336119;80;21278;-89
2022/12/10 14:03:58;;;;;;;58.33;29.98;;;;;;;0.68;100.00;97934.38;4337868;80;21122;-88
2022/12/10 14:10:01;;;;;;;61.53;29.42;;;;;;;0.66;100.00;97940.66;4344222;80;21894;-88
2022/12/10 14:16:06;;;;;;;73.42;33.18;;;;;;;0.65;100.00;97955.25;4338922;80;22223;-88
2022/12/10 14:22:10;;;;;;;66.47;32.78;;;;;;;0.64;100.00;97951.55;4324868;80;20987;-88
2022/12/10 14:28:17;;;;;;;68.72;32.38;;;;;;;0.61;100.00;97950.87;4341312;80;21168;-88
2022/12/10 14:34:27;;;;;;;78.83;35.83;;;;;;;0.59;100.00;97944.48;4313710;80;21066;-87
2022/12/10 14:40:39;;;;;;;83.70;36.90;;;;;;;0.58;100.00;97950.96;4329395;81;20952;-88
2022/12/10 14:46:41;;;;;;;92.67;41.83;;;;;;;0.55;100.00;97936.06;4315035;81;21487;-89
2022/12/10 14:52:47;;;;;;;97.37;43.55;;;;;;;0.51;100.00;97932.45;4324012;80;21547;-89
2022/12/10 14:58:57;;;;;;;75.62;34.90;;;;;;;0.52;100.00;97938.84;4327593;80;20984;-88
2022/12/10 15:04:59;;;;;;;75.37;33.02;;;;;;;0.55;100.00;97938.75;4205093;83;20992;-88
2022/12/10 15:11:02;;;;;;;75.95;34.73;;;;;;;0.56;100.00;97939.77;4175303;84;21225;-88
2022/12/10 15:17:04;;;;;;;81.28;36.00;;;;;;;0.57;100.00;97945.36;4179596;84;20992;-88
2022/12/10 15:23:22;;;;;;;78.02;34.58;;;;;;;0.58;100.00;97934.80;4315069;81;21007;-89
2022/12/10 15:29:33;;;;;;;73.83;32.28;;;;;;;0.59;100.00;97943.13;4321556;81;21441;-88
2022/12/10 15:35:36;;;;;;;73.83;30.77;;;;;;;0.57;100.00;97951.30;4333102;80;20991;-89
2022/12/10 15:41:50;;;;;;;72.72;29.60;;;;;;;0.52;100.00;97963.66;4334623;80;21033;-88
2022/12/10 15:47:54;;;;;;;75.03;31.42;;;;;;;0.52;100.00;97968.47;4344478;80;21070;-88
2022/12/10 15:53:56;;;;;;;80.92;31.75;;;;;;;0.54;100.00;97958.16;4333791;80;21022;-87
2022/12/10 16:00:05;;;;;;;75.45;33.20;;;;;;;0.52;100.00;97950.95;4332357;80;21067;-89
2022/12/10 16:06:09;;;;;;;83.47;31.68;;;;;;;0.48;100.00;97953.31;4342244;80;21476;-89
2022/12/10 16:12:13;;;;;;;80.77;36.65;;;;;;;0.46;100.00;97959.58;4332692;80;21661;-88
2022/12/10 16:18:14;;;;;;;75.70;30.12;;;;;;;0.43;100.00;97954.31;4323608;80;20983;-87
2022/12/10 16:24:17;;;;;;;69.22;28.65;;;;;;;0.46;100.00;97945.56;4336114;80;21484;-88
2022/12/10 16:30:26;;;;;;;70.28;28.38;;;;;;;0.48;100.00;97943.89;4236608;82;20970;-88
2022/12/10 16:36:28;;;;;;;76.82;31.12;;;;;;;0.49;100.00;97950.83;4290196;80;20995;-87
2022/12/10 16:42:29;;;;;;;88.27;35.95;;;;;;;0.46;100.00;97941.53;4237580;82;21001;-88
2022/12/10 16:48:31;;;;;;;72.17;32.42;;;;;;;0.42;100.00;97927.73;4247406;82;21017;-88
2022/12/10 16:54:35;;;;;;;73.33;31.62;;;;;;;0.34;100.00;97926.71;4253219;82;21034;-88
2022/12/10 17:00:37;;;;;;;75.85;29.48;;;;;;;0.39;100.00;97933.23;4253300;82;20987;-88
2022/12/10 17:06:40;;;;;;;77.67;31.70;;;;;;;0.36;100.00;97935.80;4246901;82;21553;-88
2022/12/10 17:12:51;;;;;;;79.65;33.63;;;;;;;0.36;100.00;97931.76;4254681;82;21922;-87
2022/12/10 17:18:54;;;;;;;76.17;30.65;;;;;;;0.36;100.00;97931.76;4228806;82;22022;-87
2022/12/10 17:24:56;;;;;;;70.20;27.82;;;;;;;0.33;100.00;97937.23;4116191;82;9999992;-88
2022/12/10 17:30:57;;;;;;;72.65;32.03;;;;;;;0.34;100.00;97944.76;4155876;84;21066;-88
2022/12/10 17:36:59;;;;;;;79.05;30.00;;;;;;;0.32;100.00;97928.15;4249758;80;20990;-88
2022/12/10 17:43:00;;;;;;;61.05;26.93;;;;;;;0.32;100.00;97931.63;4252389;82;21005;-87
2022/12/10 17:49:03;;;;;;;53.48;25.37;;;;;;;0.30;100.00;97923.09;4248277;82;21672;-89
2022/12/10 17:55:05;;;;;;;57.48;24.67;;;;;;;0.31;100.00;97925.23;4239926;82;21837;-88
2022/12/10 18:01:08;;;;;;;56.65;25.25;;;;;;;0.29;100.00;97920.74;4258336;82;20942;-87
2022/12/10 18:07:13;;;;;;;57.38;24.12;;;;;;;0.29;100.00;97909.97;4245663;81;21005;-88
2022/12/10 18:13:14;;;;;;;67.35;29.63;;;;;;;0.32;100.00;97920.07;4252507;82;21621;-88
2022/12/10 18:19:17;;;;;;;51.63;24.32;;;;;;;0.30;100.00;97911.56;4165722;83;21015;-88
2022/12/10 18:25:19;;;;;;;64.62;28.27;;;;;;;0.27;100.00;97914.34;4162625;83;21063;-88
2022/12/10 18:31:28;;;;;;;61.23;26.42;;;;;;;0.27;100.00;97918.38;4247169;82;21522;-88
2022/12/10 18:37:30;;;;;;;59.18;24.65;;;;;;;0.27;100.00;97917.03;4190105;81;20963;-88
2022/12/10 18:43:32;;;;;;;63.25;25.43;;;;;;;0.27;100.00;97917.03;4263250;82;21019;-88
2022/12/10 18:49:33;;;;;;;72.10;25.70;;;;;;;0.26;100.00;97916.02;4260390;81;21103;-87
2022/12/10 18:55:36;;;;;;;78.55;27.37;;;;;;;0.27;100.00;97909.54;4306931;80;21512;-88
2022/12/10 19:01:38;;;;;;;72.03;26.35;;;;;;;0.24;100.00;97927.67;4300114;80;21021;-87
2022/12/10 19:07:40;;;;;;;70.22;25.82;;;;;;;0.25;100.00;97934.65;4300574;80;20974;-88
2022/12/10 19:13:43;;;;;;;62.93;23.98;;;;;;;0.25;100.00;97921.95;4305410;80;21090;-88
2022/12/10 19:19:46;;;;;;;71.50;25.80;;;;;;;0.24;100.00;97923.64;4242221;82;21958;-88
2022/12/10 19:25:47;;;;;;;72.65;26.40;;;;;;;0.25;100.00;97923.89;4240405;82;21015;-88
2022/12/10 19:31:50;;;;;;;68.12;25.77;;;;;;;0.25;100.00;97925.99;4238623;82;21334;-88
2022/12/10 19:37:53;;;;;;;59.18;25.23;;;;;;;0.22;100.00;97928.59;4219405;82;21060;-88
2022/12/10 19:43:55;;;;;;;64.70;24.95;;;;;;;0.21;100.00;97930.48;4106137;84;21157;-88
2022/12/10 19:49:57;;;;;;;68.00;27.73;;;;;;;0.25;100.00;97926.58;4296150;80;21572;-88
2022/12/10 19:55:58;;;;;;;71.97;26.87;;;;;;;0.25;100.00;97917.16;4290283;81;20969;-88
2022/12/10 20:02:00;;;;;;;70.03;25.57;;;;;;;0.24;100.00;97930.37;4290862;81;20981;-88
2022/12/10 20:08:01;;;;;;;64.80;24.15;;;;;;;0.25;100.00;97915.23;4308728;81;20982;-88
2022/12/10 20:14:03;;;;;;;63.87;23.20;;;;;;;0.25;100.00;97909.08;4297615;81;21907;-88
2022/12/10 20:20:05;;;;;;;63.38;23.22;;;;;;;0.24;100.00;97903.45;4288129;81;21024;-89
2022/12/10 20:26:18;;;;;;;59.70;24.85;;;;;;;0.21;100.00;97887.42;4294552;81;20973;-89
2022/12/10 20:32:22;;;;;;;59.35;25.90;;;;;;;0.20;100.00;97871.61;4303660;81;21167;-90
2022/12/10 20:38:24;;;;;;;65.05;25.95;;;;;;;0.19;100.00;97870.05;4294201;81;21066;-88
2022/12/10 20:44:27;;;;;;;65.35;26.35;;;;;;;0.14;100.00;97873.75;4296609;81;21923;-91
2022/12/10 20:50:29;;;;;;;67.90;27.15;;;;;;;0.11;100.00;97876.31;4297963;81;20961;-90
2022/12/10 20:56:30;;;;;;;55.28;22.70;;;;;;;0.09;100.00;97879.88;4295607;81;20975;-89
2022/12/10 21:02:32;;;;;;;56.80;23.47;;;;;;;0.08;100.00;97876.98;4302328;81;20980;-91
2022/12/10 21:08:33;;;;;;;52.30;22.35;;;;;;;0.03;100.00;97855.66;4259677;82;20991;-90
2022/12/10 21:14:35;;;;;;;50.80;21.27;;;;;;;0.03;100.00;97851.08;4258049;82;20989;-89
2022/12/10 21:20:38;;;;;;;48.42;20.75;;;;;;;0.01;100.00;97850.61;4295710;81;21073;-90
2022/12/10 21:26:40;;;;;;;52.23;22.35;;;;;;;0.01;100.00;97842.55;4258656;82;21023;-90
2022/12/10 21:32:44;;;;;;;54.00;23.47;;;;;;;-0.02;100.00;97848.02;4202247;83;21058;-90
2022/12/10 21:38:46;;;;;;;63.58;24.67;;;;;;;-0.01;100.00;97856.88;4205900;83;21867;-89
2022/12/10 21:44:53;;;;;;;64.47;25.00;;;;;;;0.00;100.00;97867.31;4269193;82;21958;-89
2022/12/10 21:51:02;;;;;;;61.68;24.30;;;;;;;0.02;100.00;97868.31;4298938;80;21037;-90
2022/12/10 21:57:03;;;;;;;53.17;23.45;;;;;;;-0.01;100.00;97855.53;4292728;80;21610;-90
2022/12/10 22:03:05;;;;;;;55.40;23.18;;;;;;;-0.04;100.00;97847.58;4293556;81;21028;-90
2022/12/10 22:09:07;;;;;;;49.42;21.17;;;;;;;-0.04;100.00;97847.58;4213199;83;21000;-90
2022/12/10 22:15:11;;;;;;;53.15;23.42;;;;;;;-0.05;100.00;97845.99;4298774;81;20939;-89
2022/12/10 22:21:12;;;;;;;58.73;23.47;;;;;;;-0.04;100.00;97844.09;4293578;80;21550;-88
2022/12/10 22:27:14;;;;;;;58.70;22.75;;;;;;;-0.04;100.00;97836.83;4296858;81;21630;-92
2022/12/10 22:33:18;;;;;;;57.23;23.47;;;;;;;-0.04;100.00;97836.83;4255773;82;21324;-91
2022/12/10 22:39:19;;;;;;;55.12;22.02;;;;;;;-0.04;100.00;97838.16;4297917;80;21066;-89
2022/12/10 22:45:23;;;;;;;56.15;23.35;;;;;;;-0.05;100.00;97833.89;4315633;80;20975;-89
2022/12/10 22:51:26;;;;;;;63.90;24.45;;;;;;;-0.05;100.00;97820.44;4312533;80;21007;-89
2022/12/10 22:57:38;;;;;;;59.08;24.15;;;;;;;-0.06;100.00;97819.42;4305126;80;21046;-91
2022/12/10 23:03:36;;;;;;;53.48;21.37;;;;;;;-0.06;100.00;97812.70;4323348;80;21038;-91
2022/12/10 23:09:39;;;;;;;53.65;22.00;;;;;;;-0.05;100.00;97825.05;4327431;80;21002;-91
2022/12/10 23:15:42;;;;;;;57.75;22.00;;;;;;;-0.07;100.00;97818.66;4309011;80;21090;-91
2022/12/10 23:21:43;;;;;;;54.98;22.35;;;;;;;-0.06;100.00;97814.05;4311279;80;21020;-91
2022/12/10 23:27:46;;;;;;;57.50;22.25;;;;;;;-0.04;100.00;97803.19;4311205;80;21082;-90
2022/12/10 23:33:49;;;;;;;53.60;21.75;;;;;;;-0.08;100.00;97782.09;4306295;80;21499;-90
2022/12/10 23:39:53;;;;;;;58.80;22.80;;;;;;;-0.08;100.00;97782.09;4291103;81;21070;-89
2022/12/10 23:45:55;;;;;;;54.55;22.25;;;;;;;-0.09;100.00;97764.95;4293867;81;21586;-89
2022/12/10 23:51:56;;;;;;;55.12;22.75;;;;;;;-0.13;100.00;97764.86;4250771;82;21045;-89
2022/12/10 23:57:58;;;;;;;43.90;19.27;;;;;;;-0.13;100.00;97764.86;4214713;83;21116;-88
